createdAt,value
2023-01-22T00:00:43.389Z,103528.28
2023-01-22T00:03:11.545Z,103527.41
2023-01-22T00:05:39.521Z,103534.47
2023-01-22T00:08:07.568Z,103536.16
2023-01-22T00:10:35.590Z,103533.59
2023-01-22T00:13:03.511Z,103537.19
2023-01-22T00:15:31.736Z,103535.38
2023-01-22T00:18:01.053Z,103531.78
2023-01-22T00:20:28.996Z,103535.59
2023-01-22T00:22:57.017Z,103542.00
2023-01-22T00:25:25.066Z,103541.84
2023-01-22T00:27:54.076Z,103529.22
2023-01-22T00:30:22.645Z,103541.19
2023-01-22T00:32:52.458Z,103534.19
2023-01-22T00:35:21.853Z,103534.06
2023-01-22T00:37:49.925Z,103525.88
2023-01-22T00:40:18.888Z,103521.28
2023-01-22T00:42:46.969Z,103527.66
2023-01-22T00:45:15.762Z,103532.06
2023-01-22T00:47:43.735Z,103524.81
2023-01-22T00:50:12.884Z,103522.25
2023-01-22T00:52:42.272Z,103536.31
2023-01-22T00:55:10.816Z,103529.22
2023-01-22T00:57:38.812Z,103538.34
2023-01-22T01:00:08.228Z,103537.47
2023-01-22T01:02:57.320Z,103543.72
2023-01-22T01:05:25.413Z,103541.03
2023-01-22T01:07:54.750Z,103540.84
2023-01-22T01:10:23.161Z,103532.00
2023-01-22T01:12:51.096Z,103538.19
2023-01-22T01:15:21.169Z,103540.91
2023-01-22T01:17:49.189Z,103529.97
2023-01-22T01:20:17.904Z,103532.59
2023-01-22T01:22:46.095Z,103534.44
2023-01-22T01:25:15.365Z,103540.53
2023-01-22T01:27:43.361Z,103536.00
2023-01-22T01:30:13.065Z,103535.13
2023-01-22T01:32:41.164Z,103528.84
2023-01-22T01:35:10.072Z,103538.63
2023-01-22T01:37:39.670Z,103538.63
2023-01-22T01:40:09.255Z,103535.94
2023-01-22T01:42:41.292Z,103539.44
2023-01-22T01:45:23.410Z,103542.16
2023-01-22T01:47:56.667Z,103543.16
2023-01-22T01:50:28.177Z,103549.41
2023-01-22T01:52:57.533Z,103543.31
2023-01-22T01:55:28.752Z,103540.53
2023-01-22T01:58:02.021Z,103537.91
2023-01-22T02:00:33.825Z,103543.53
2023-01-22T02:03:02.083Z,103538.34
2023-01-22T02:05:33.466Z,103535.66
2023-01-22T02:08:01.558Z,103533.91
2023-01-22T02:10:29.893Z,103542.81
2023-01-22T02:13:04.976Z,103532.00
2023-01-22T02:15:33.041Z,103529.38
2023-01-22T02:18:00.995Z,103535.66
2023-01-22T02:20:29.095Z,103539.31
2023-01-22T02:22:58.367Z,103540.16
2023-01-22T02:25:26.857Z,103537.56
2023-01-22T02:27:54.767Z,103533.19
2023-01-22T02:30:24.530Z,103531.41
2023-01-22T02:32:52.700Z,103521.75
2023-01-22T02:35:20.693Z,103524.44
2023-01-22T02:37:49.973Z,103527.13
2023-01-22T02:40:19.582Z,103529.97
2023-01-22T02:42:48.504Z,103531.00
2023-01-22T02:45:16.834Z,103521.22
2023-01-22T02:47:44.897Z,103519.63
2023-01-22T02:50:13.401Z,103526.91
2023-01-22T02:52:41.454Z,103535.06
2023-01-22T02:55:09.981Z,103532.50
2023-01-22T02:57:42.031Z,103536.22
2023-01-22T03:00:11.429Z,103540.81
2023-01-22T03:02:39.462Z,103534.53
2023-01-22T03:05:08.405Z,103530.03
2023-01-22T03:07:44.719Z,103535.41
2023-01-22T03:10:15.707Z,103520.63
2023-01-22T03:13:03.280Z,103536.44
2023-01-22T03:15:49.215Z,103537.50
2023-01-22T03:18:35.085Z,103542.97
2023-01-22T03:21:16.832Z,103543.19
2023-01-22T03:23:46.989Z,103535.97
2023-01-22T03:26:16.283Z,103531.53
2023-01-22T03:28:46.188Z,103540.50
2023-01-22T03:31:15.308Z,103527.09
2023-01-22T03:33:43.990Z,103539.63
2023-01-22T03:36:15.137Z,103535.97
2023-01-22T03:38:49.086Z,103530.75
2023-01-22T03:41:20.722Z,103532.56
2023-01-22T03:43:51.789Z,103530.75
2023-01-22T03:46:22.910Z,103532.56
2023-01-22T03:48:55.024Z,103507.88
2023-01-22T03:51:24.284Z,103531.66
2023-01-22T03:53:52.398Z,103533.53
2023-01-22T03:56:22.243Z,103536.16
2023-01-22T03:58:52.531Z,103533.44
2023-01-22T04:01:23.808Z,103536.16
2023-01-22T04:03:53.128Z,103528.19
2023-01-22T04:06:25.041Z,103537.25
2023-01-22T04:08:54.560Z,103528.28
2023-01-22T04:11:27.380Z,103533.69
2023-01-22T04:13:57.220Z,103530.19
2023-01-22T04:16:28.288Z,103523.97
2023-01-22T04:18:59.360Z,103520.34
2023-01-22T04:21:51.475Z,103524.84
2023-01-22T04:24:20.811Z,103523.97
2023-01-22T04:26:49.251Z,103531.19
2023-01-22T04:29:21.725Z,103530.31
2023-01-22T04:31:50.682Z,103545.59
2023-01-22T04:37:35.294Z,103537.72
2023-01-22T04:40:05.642Z,103529.66
2023-01-22T04:42:36.379Z,103532.25
2023-01-22T04:45:07.080Z,103522.19
2023-01-22T04:47:35.175Z,103544.00
2023-01-22T04:50:03.210Z,103521.69
2023-01-22T04:52:31.222Z,103544.94
2023-01-22T04:54:59.409Z,103547.72
2023-01-22T04:57:33.972Z,103538.75
2023-01-22T05:00:01.881Z,103541.34
2023-01-22T05:02:31.457Z,103538.75
2023-01-22T05:04:59.454Z,103543.25
2023-01-22T05:07:27.478Z,103539.63
2023-01-22T05:09:55.851Z,103543.25
2023-01-22T05:12:23.941Z,103536.09
2023-01-22T05:14:54.184Z,103535.16
2023-01-22T05:17:22.677Z,103533.34
2023-01-22T05:19:52.226Z,103532.47
2023-01-22T05:22:22.413Z,103522.59
2023-01-22T05:24:50.469Z,103523.59
2023-01-22T05:27:18.790Z,103530.81
2023-01-22T05:29:55.433Z,103520.91
2023-01-22T05:32:39.463Z,103524.59
2023-01-22T05:35:10.142Z,103534.38
2023-01-22T05:37:39.646Z,103522.72
2023-01-22T05:40:09.964Z,103524.47
2023-01-22T05:42:37.999Z,103524.59
2023-01-22T05:45:08.753Z,103526.47
2023-01-22T05:47:41.927Z,103533.63
2023-01-22T05:50:28.709Z,103535.44
2023-01-22T05:53:05.491Z,103530.06
2023-01-22T05:55:33.579Z,103532.81
2023-01-22T05:58:04.317Z,103535.56
2023-01-22T06:00:34.518Z,103540.03
2023-01-22T06:03:05.485Z,103537.31
2023-01-22T06:05:45.156Z,103543.66
2023-01-22T06:08:13.658Z,103532.41
2023-01-22T06:10:49.085Z,103550.88
2023-01-22T06:13:17.129Z,103549.03
2023-01-22T06:15:48.396Z,103548.19
2023-01-22T06:18:36.586Z,103547.44
2023-01-22T06:21:07.466Z,103551.69
2023-01-22T06:23:36.714Z,103553.50
2023-01-22T06:26:05.846Z,103554.41
2023-01-22T06:28:33.896Z,103556.31
2023-01-22T06:31:05.769Z,103561.69
2023-01-22T06:33:35.041Z,103552.81
2023-01-22T06:36:06.361Z,103557.19
2023-01-22T06:38:34.413Z,103551.06
2023-01-22T06:41:06.793Z,103554.72
2023-01-22T06:43:34.892Z,103562.91
2023-01-22T06:46:04.752Z,103571.88
2023-01-22T06:49:11.268Z,103563.03
2023-01-22T06:51:42.894Z,103565.75
2023-01-22T06:54:13.458Z,103570.19
2023-01-22T06:56:41.399Z,103576.50
2023-01-22T06:59:09.453Z,103569.31
2023-01-22T07:01:37.567Z,103571.06
2023-01-22T07:04:05.859Z,103565.81
2023-01-22T07:06:33.940Z,103569.38
2023-01-22T07:09:03.289Z,103572.94
2023-01-22T07:11:31.269Z,103582.81
2023-01-22T07:13:59.171Z,103574.91
2023-01-22T07:16:27.236Z,103579.53
2023-01-22T07:18:55.203Z,103577.78
2023-01-22T07:21:23.216Z,103571.53
2023-01-22T07:23:51.155Z,103579.53
2023-01-22T07:26:20.513Z,103582.16
2023-01-22T07:28:48.439Z,103579.53
2023-01-22T07:31:16.441Z,103580.41
2023-01-22T07:33:44.449Z,103575.03
2023-01-22T07:36:12.541Z,103584.13
2023-01-22T07:38:40.405Z,103577.19
2023-01-22T07:41:17.090Z,103575.25
2023-01-22T07:43:56.136Z,103580.53
2023-01-22T07:46:24.438Z,103584.13
2023-01-22T07:48:52.478Z,103584.16
2023-01-22T07:51:20.628Z,103586.00
2023-01-22T07:53:48.569Z,103590.44
2023-01-22T07:56:18.057Z,103584.16
2023-01-22T07:58:45.979Z,103557.03
2023-01-22T08:01:15.787Z,103587.81
2023-01-22T08:03:43.804Z,103583.31
2023-01-22T08:06:13.291Z,103581.63
2023-01-22T08:08:42.689Z,103579.88
2023-01-22T08:11:10.703Z,103587.13
2023-01-22T08:13:38.674Z,103593.31
2023-01-22T08:16:09.345Z,103596.03
2023-01-22T08:18:39.145Z,103603.22
2023-01-22T08:21:07.679Z,103591.66
2023-01-22T08:23:35.925Z,103597.03
2023-01-22T08:26:05.292Z,103591.69
2023-01-22T08:28:33.852Z,103600.72
2023-01-22T08:31:03.766Z,103585.50
2023-01-22T08:33:33.994Z,103590.97
2023-01-22T08:36:04.164Z,103602.63
2023-01-22T08:38:32.064Z,103598.22
2023-01-22T08:41:00.002Z,103605.44
2023-01-22T08:43:27.966Z,103609.00
2023-01-22T08:45:57.130Z,103607.25
2023-01-22T08:48:25.205Z,103600.16
2023-01-22T08:50:53.181Z,103608.13
2023-01-22T08:53:22.505Z,103608.03
2023-01-22T08:55:51.035Z,103613.44
2023-01-22T08:58:20.499Z,103601.09
2023-01-22T09:00:48.653Z,103624.28
2023-01-22T09:03:16.668Z,103628.69
2023-01-22T09:05:44.605Z,103625.16
2023-01-22T09:08:12.652Z,103638.63
2023-01-22T09:10:42.058Z,103648.41
2023-01-22T09:13:10.540Z,103637.72
2023-01-22T09:15:38.602Z,103645.81
2023-01-22T09:18:06.757Z,103635.91
2023-01-22T09:20:34.801Z,103636.78
2023-01-22T09:23:02.734Z,103632.25
2023-01-22T09:25:30.709Z,103636.78
2023-01-22T09:28:00.930Z,103642.16
2023-01-22T09:30:30.565Z,103644.00
2023-01-22T09:32:58.651Z,103643.03
2023-01-22T09:35:27.305Z,103650.19
2023-01-22T09:37:55.687Z,103643.91
2023-01-22T09:40:27.765Z,103643.03
2023-01-22T09:43:08.208Z,103642.09
2023-01-22T09:45:39.838Z,103644.81
2023-01-22T09:48:14.689Z,103645.81
2023-01-22T09:50:42.760Z,103646.72
2023-01-22T09:53:15.757Z,103638.66
2023-01-22T09:55:47.090Z,103654.81
2023-01-22T09:58:18.999Z,103642.09
2023-01-22T10:00:51.879Z,103643.91
2023-01-22T10:03:26.997Z,103643.91
2023-01-22T10:05:58.409Z,103645.69
2023-01-22T10:08:32.396Z,103646.59
2023-01-22T10:11:02.165Z,103643.91
2023-01-22T10:13:34.949Z,103651.09
2023-01-22T10:16:04.242Z,103650.22
2023-01-22T10:18:37.826Z,103646.59
2023-01-22T10:21:12.378Z,103646.69
2023-01-22T10:23:40.291Z,103646.59
2023-01-22T10:26:17.037Z,103645.59
2023-01-22T10:28:48.952Z,103643.16
2023-01-22T10:31:25.438Z,103638.53
2023-01-22T10:33:58.577Z,103647.41
2023-01-22T10:36:27.453Z,103646.53
2023-01-22T10:39:06.581Z,103638.47
2023-01-22T10:41:34.732Z,103645.94
2023-01-22T10:44:20.257Z,103649.31
2023-01-22T10:46:49.894Z,103651.22
2023-01-22T10:49:20.537Z,103651.19
2023-01-22T10:51:53.994Z,103646.69
2023-01-22T10:54:25.970Z,103652.06
2023-01-22T10:57:04.915Z,103609.88
2023-01-22T10:59:34.684Z,103638.63
2023-01-22T11:02:12.506Z,103651.19
2023-01-22T11:04:40.589Z,103653.91
2023-01-22T11:07:14.461Z,103645.94
2023-01-22T11:09:47.213Z,103645.94
2023-01-22T11:12:18.997Z,103639.75
2023-01-22T11:14:52.510Z,103635.28
2023-01-22T11:17:26.827Z,103640.66
2023-01-22T11:20:01.373Z,103641.63
2023-01-22T11:22:34.769Z,103645.25
2023-01-22T11:25:04.029Z,103644.41
2023-01-22T11:27:55.944Z,103633.75
2023-01-22T11:30:55.349Z,103617.53
2023-01-22T11:33:37.700Z,103638.50
2023-01-22T11:36:13.898Z,103640.25
2023-01-22T11:38:51.275Z,103634.00
2023-01-22T11:41:41.890Z,103642.13
2023-01-22T11:44:30.825Z,103642.19
2023-01-22T11:47:21.062Z,103633.22
2023-01-22T11:50:09.913Z,103632.31
2023-01-22T11:52:48.754Z,103631.50
2023-01-22T11:55:42.760Z,103625.22
2023-01-22T11:58:19.173Z,103627.13
2023-01-22T12:00:55.287Z,103620.72
2023-01-22T12:04:04.330Z,103627.00
2023-01-22T12:06:47.430Z,103634.22
2023-01-22T12:09:22.993Z,103641.25
2023-01-22T12:12:09.774Z,103635.75
2023-01-22T12:14:50.888Z,103631.19
2023-01-22T12:17:30.886Z,103635.63
2023-01-22T12:20:20.473Z,103634.78
2023-01-22T12:22:55.132Z,103625.88
2023-01-22T12:25:35.807Z,103626.59
2023-01-22T12:28:10.093Z,103633.06
2023-01-22T12:30:46.352Z,103633.94
2023-01-22T12:33:18.927Z,103633.88
2023-01-22T12:35:51.573Z,103631.06
2023-01-22T12:38:31.223Z,103625.69
2023-01-22T12:41:22.410Z,103617.59
2023-01-22T12:43:53.509Z,103624.88
2023-01-22T12:46:42.777Z,103597.97
2023-01-22T12:49:13.157Z,103601.34
2023-01-22T12:51:44.472Z,103590.19
2023-01-22T12:54:23.661Z,103584.50
2023-01-22T12:56:53.755Z,103592.56
2023-01-22T12:59:32.491Z,103587.00
2023-01-22T13:02:02.262Z,103587.06
2023-01-22T13:04:31.254Z,103589.75
2023-01-22T13:07:21.036Z,103585.13
2023-01-22T13:09:49.315Z,103591.44
2023-01-22T13:12:28.112Z,103597.28
2023-01-22T13:14:56.446Z,103593.34
2023-01-22T13:17:26.994Z,103587.75
2023-01-22T13:19:55.478Z,103589.94
2023-01-22T13:22:27.889Z,103589.16
2023-01-22T13:24:56.990Z,103592.00
2023-01-22T13:27:26.802Z,103583.09
2023-01-22T13:30:07.974Z,103579.66
2023-01-22T13:32:36.289Z,103589.84
2023-01-22T13:35:05.048Z,103589.63
2023-01-22T13:37:35.840Z,103594.00
2023-01-22T13:40:13.299Z,103593.38
2023-01-22T13:42:45.462Z,103591.75
2023-01-22T13:45:17.562Z,103590.44
2023-01-22T13:47:45.674Z,103583.66
2023-01-22T13:50:21.316Z,103586.75
2023-01-22T13:52:51.426Z,103578.53
2023-01-22T13:55:22.138Z,103583.44
2023-01-22T13:57:52.187Z,103585.22
2023-01-22T14:00:26.711Z,103578.59
2023-01-22T14:02:55.243Z,103575.03
2023-01-22T14:05:25.388Z,103568.91
2023-01-22T14:08:05.810Z,103567.81
2023-01-22T14:10:34.154Z,103568.47
2023-01-22T14:13:03.385Z,103565.44
2023-01-22T14:15:31.687Z,103558.06
2023-01-22T14:18:10.399Z,103561.56
2023-01-22T14:20:40.464Z,103572.00
2023-01-22T14:23:09.844Z,103575.41
2023-01-22T14:25:38.308Z,103577.03
2023-01-22T14:28:06.883Z,103583.13
2023-01-22T14:30:35.089Z,103563.03
2023-01-22T14:33:03.376Z,103578.94
2023-01-22T14:35:31.653Z,103581.56
2023-01-22T14:38:00.025Z,103580.66
2023-01-22T14:40:32.984Z,103572.44
2023-01-22T14:43:02.053Z,103574.13
2023-01-22T14:45:30.321Z,103581.28
2023-01-22T14:47:58.350Z,103583.00
2023-01-22T14:50:26.243Z,103581.28
2023-01-22T14:52:54.698Z,103579.38
2023-01-22T14:55:22.903Z,103579.28
2023-01-22T14:57:52.601Z,103569.97
2023-01-22T15:00:21.356Z,103591.84
2023-01-22T15:02:49.702Z,103597.09
2023-01-22T15:05:17.725Z,103599.66
2023-01-22T15:07:45.807Z,103595.06
2023-01-22T15:10:13.784Z,103603.84
2023-01-22T15:12:41.715Z,103601.09
2023-01-22T15:15:12.350Z,103599.22
2023-01-22T15:17:40.396Z,103600.09
2023-01-22T15:20:09.508Z,103595.56
2023-01-22T15:22:37.564Z,103594.69
2023-01-22T15:25:06.307Z,103590.97
2023-01-22T15:27:34.360Z,103596.28
2023-01-22T15:30:04.109Z,103602.66
2023-01-22T15:32:33.773Z,103599.72
2023-01-22T15:35:01.688Z,103596.16
2023-01-22T15:37:29.726Z,103598.84
2023-01-22T15:39:57.829Z,103598.06
2023-01-22T15:42:25.913Z,103590.38
2023-01-22T15:44:53.880Z,103602.13
2023-01-22T15:47:21.951Z,103605.47
2023-01-22T15:49:51.286Z,103601.53
2023-01-22T15:52:19.304Z,103597.03
2023-01-22T15:54:47.472Z,103594.09
2023-01-22T15:57:15.746Z,103595.78
2023-01-22T15:59:43.749Z,103607.44
2023-01-22T16:02:12.281Z,103598.47
2023-01-22T16:04:40.216Z,103615.22
2023-01-22T16:07:09.601Z,103605.22
2023-01-22T16:09:38.808Z,103609.75
2023-01-22T16:12:07.527Z,103606.09
2023-01-22T16:14:35.607Z,103606.84
2023-01-22T16:17:03.614Z,103609.38
2023-01-22T16:19:31.761Z,103606.53
2023-01-22T16:21:59.744Z,103606.47
2023-01-22T16:24:29.212Z,103615.28
2023-01-22T16:26:57.155Z,103607.19
2023-01-22T16:29:25.238Z,103602.66
2023-01-22T16:31:53.320Z,103600.84
2023-01-22T16:34:21.848Z,103603.47
2023-01-22T16:36:50.407Z,103606.09
2023-01-22T16:39:20.037Z,103606.03
2023-01-22T16:41:50.929Z,103618.69
2023-01-22T16:44:20.096Z,103613.75
2023-01-22T16:46:52.381Z,103615.06
2023-01-22T16:49:22.553Z,103611.97
2023-01-22T16:51:52.641Z,103609.72
2023-01-22T16:54:22.301Z,103612.78
2023-01-22T16:56:51.824Z,103605.03
2023-01-22T16:59:19.858Z,103605.47
2023-01-22T17:01:48.076Z,103600.41
2023-01-22T17:04:16.317Z,103606.16
2023-01-22T17:06:46.366Z,103607.44
2023-01-22T17:09:17.015Z,103600.50
2023-01-22T17:11:46.997Z,103602.41
2023-01-22T17:14:20.196Z,103602.34
2023-01-22T17:16:48.603Z,103610.44
2023-01-22T17:19:17.100Z,103610.44
2023-01-22T17:21:45.698Z,103606.88
2023-01-22T17:24:14.756Z,103606.88
2023-01-22T17:26:43.139Z,103614.06
2023-01-22T17:29:11.687Z,103615.88
2023-01-22T17:31:41.139Z,103619.50
2023-01-22T17:34:11.033Z,103611.41
2023-01-22T17:36:39.489Z,103620.47
2023-01-22T17:39:08.371Z,103607.91
2023-01-22T17:41:36.291Z,103612.47
2023-01-22T17:44:04.316Z,103620.56
2023-01-22T17:46:32.993Z,103621.56
2023-01-22T17:49:04.592Z,103623.38
2023-01-22T17:51:34.739Z,103626.97
2023-01-22T17:54:06.031Z,103624.34
2023-01-22T17:56:36.002Z,103628.78
2023-01-22T17:59:06.767Z,103626.09
2023-01-22T18:01:36.799Z,103617.28
2023-01-22T18:04:07.886Z,103626.88
2023-01-22T18:06:37.204Z,103620.69
2023-01-22T18:09:06.231Z,103618.09
2023-01-22T18:11:36.206Z,103619.56
2023-01-22T18:14:06.165Z,103616.19
2023-01-22T18:16:37.206Z,103626.84
2023-01-22T18:19:07.502Z,103618.56
2023-01-22T18:21:36.106Z,103614.16
2023-01-22T18:24:06.671Z,103614.03
2023-01-22T18:26:35.090Z,103621.03
2023-01-22T18:29:03.871Z,103621.84
2023-01-22T18:31:32.068Z,103628.97
2023-01-22T18:34:02.524Z,103622.97
2023-01-22T18:36:34.051Z,103622.16
2023-01-22T18:39:04.283Z,103625.06
2023-01-22T18:41:33.791Z,103623.31
2023-01-22T18:44:02.490Z,103621.59
2023-01-22T18:46:33.210Z,103628.78
2023-01-22T18:49:03.217Z,103623.66
2023-01-22T18:51:34.166Z,103635.09
2023-01-22T18:54:03.095Z,103634.38
2023-01-22T18:56:31.195Z,103634.50
2023-01-22T18:59:00.028Z,103629.16
2023-01-22T19:01:29.988Z,103637.53
2023-01-22T19:04:00.464Z,103616.63
2023-01-22T19:06:31.173Z,103578.84
2023-01-22T19:09:03.891Z,103629.81
2023-01-22T19:11:34.866Z,103630.81
2023-01-22T19:14:05.637Z,103630.94
2023-01-22T19:16:34.116Z,103640.03
2023-01-22T19:19:03.934Z,103636.53
2023-01-22T19:21:32.522Z,103642.03
2023-01-22T19:24:02.982Z,103654.56
2023-01-22T19:26:32.994Z,103651.31
2023-01-22T19:29:02.669Z,103666.66
2023-01-22T19:31:32.335Z,103664.03
2023-01-22T19:34:01.901Z,103663.16
2023-01-22T19:36:32.562Z,103653.50
2023-01-22T19:39:06.204Z,103661.41
2023-01-22T19:41:34.274Z,103656.22
2023-01-22T19:44:03.739Z,103658.09
2023-01-22T19:46:31.811Z,103657.31
2023-01-22T19:48:59.814Z,103664.56
2023-01-22T19:51:30.651Z,103659.41
2023-01-22T19:54:01.807Z,103649.00
2023-01-22T19:56:32.498Z,103659.44
2023-01-22T19:59:06.063Z,103662.81
2023-01-22T20:01:34.524Z,103660.09
2023-01-22T20:04:03.737Z,103667.97
2023-01-22T20:06:31.853Z,103671.31
2023-01-22T20:09:01.205Z,103664.88
2023-01-22T20:11:29.205Z,103665.66
2023-01-22T20:13:57.318Z,103661.00
2023-01-22T20:16:28.306Z,103659.94
2023-01-22T20:18:57.971Z,103658.00
2023-01-22T20:21:27.742Z,103657.88
2023-01-22T20:23:56.031Z,103657.88
2023-01-22T20:26:25.529Z,103651.75
2023-01-22T20:28:53.579Z,103659.16
2023-01-22T20:31:24.130Z,103651.44
2023-01-22T20:33:54.810Z,103645.56
2023-01-22T20:36:24.032Z,103659.16
2023-01-22T20:38:54.127Z,103657.63
2023-01-22T20:41:23.360Z,103651.53
2023-01-22T20:43:54.475Z,103651.56
2023-01-22T20:46:25.299Z,103646.25
2023-01-22T20:48:54.809Z,103648.84
2023-01-22T20:51:25.846Z,103650.53
2023-01-22T20:53:54.815Z,103641.25
2023-01-22T20:56:27.278Z,103642.56
2023-01-22T20:59:01.171Z,103639.78
2023-01-22T21:01:29.463Z,103626.41
2023-01-22T21:03:59.038Z,103638.06
2023-01-22T21:06:29.674Z,103640.53
2023-01-22T21:08:58.895Z,103641.31
2023-01-22T21:11:28.375Z,103642.03
2023-01-22T21:13:57.514Z,103633.84
2023-01-22T21:16:29.567Z,103635.53
2023-01-22T21:18:59.903Z,103640.16
2023-01-22T21:21:29.357Z,103623.22
2023-01-22T21:23:57.965Z,103653.47
2023-01-22T21:26:28.178Z,103644.88
2023-01-22T21:28:58.225Z,103645.19
2023-01-22T21:31:28.118Z,103644.28
2023-01-22T21:34:02.557Z,103647.88
2023-01-22T21:36:32.096Z,103643.13
2023-01-22T21:39:00.693Z,103640.50
2023-01-22T21:41:28.936Z,103627.84
2023-01-22T21:44:14.344Z,103631.06
2023-01-22T21:46:45.897Z,103641.47
2023-01-22T21:49:20.954Z,103642.09
2023-01-22T21:51:51.202Z,103646.59
2023-01-22T21:54:21.115Z,103638.66
2023-01-22T21:56:49.163Z,103644.03
2023-01-22T21:59:17.403Z,103637.44
2023-01-22T22:01:50.236Z,103633.59
2023-01-22T22:04:18.882Z,103635.88
2023-01-22T22:06:46.867Z,103636.69
2023-01-22T22:09:17.404Z,103633.06
2023-01-22T22:11:46.193Z,103634.88
2023-01-22T22:14:16.112Z,103634.81
2023-01-22T22:16:44.489Z,103633.88
2023-01-22T22:19:14.539Z,103640.13
2023-01-22T22:21:42.749Z,103638.31
2023-01-22T22:24:10.981Z,103634.69
2023-01-22T22:26:39.942Z,103628.44
2023-01-22T22:29:09.221Z,103624.72
2023-01-22T22:31:38.249Z,103629.22
2023-01-22T22:34:06.724Z,103615.78
2023-01-22T22:36:36.200Z,103608.50
2023-01-22T22:39:06.467Z,103616.56
2023-01-22T22:41:36.178Z,103614.69
2023-01-22T22:44:04.514Z,103624.53
2023-01-22T22:46:35.414Z,103622.72
2023-01-22T22:49:04.858Z,103622.72
2023-01-22T22:51:36.265Z,103627.13
2023-01-22T22:54:06.311Z,103633.41
2023-01-22T22:56:34.273Z,103635.97
2023-01-22T22:59:03.076Z,103632.47
2023-01-22T23:01:33.161Z,103604.84
2023-01-22T23:04:01.451Z,103621.00
2023-01-22T23:06:32.144Z,103624.88
2023-01-22T23:09:11.135Z,103619.88
2023-01-22T23:11:39.461Z,103612.22
2023-01-22T23:14:07.846Z,103608.97
2023-01-22T23:16:38.196Z,103606.41
2023-01-22T23:19:08.404Z,103599.13
2023-01-22T23:21:40.712Z,103601.09
2023-01-22T23:24:11.141Z,103617.22
2023-01-22T23:26:40.113Z,103614.47
2023-01-22T23:29:09.887Z,103606.31
2023-01-22T23:31:39.440Z,103605.38
2023-01-22T23:34:15.032Z,103597.44
2023-01-22T23:36:45.304Z,103594.59
2023-01-22T23:39:16.193Z,103606.91
2023-01-22T23:41:44.369Z,103605.25
2023-01-22T23:44:12.936Z,103606.38
2023-01-22T23:46:41.163Z,103548.00
2023-01-22T23:49:09.209Z,103606.94
2023-01-22T23:51:40.957Z,103596.34
2023-01-22T23:54:09.145Z,103592.03
2023-01-22T23:56:38.785Z,103584.16
2023-01-22T23:59:06.768Z,103584.25
